createdAt,value
2018-03-03T00:02:31.575Z,171.37
2018-03-03T00:05:11.544Z,155.95
2018-03-03T00:07:49.901Z,179.02
2018-03-03T00:10:25.831Z,191.75
2018-03-03T00:13:02.836Z,153.80
2018-03-03T00:15:39.065Z,177.25
2018-03-03T00:18:13.653Z,179.68
2018-03-03T00:20:56.533Z,168.20
2018-03-03T00:23:32.933Z,182.45
2018-03-03T00:26:16.138Z,196.02
2018-03-03T00:28:53.107Z,165.90
2018-03-03T00:31:28.397Z,175.75
2018-03-03T00:34:03.916Z,185.70
2018-03-03T00:36:34.082Z,172.25
2018-03-03T00:39:11.214Z,178.52
2018-03-03T00:41:46.965Z,185.68
2018-03-03T00:44:24.380Z,190.15
2018-03-03T00:47:01.694Z,192.98
2018-03-03T00:49:39.295Z,174.27
2018-03-03T00:52:16.314Z,189.48
2018-03-03T00:54:53.130Z,203.35
2018-03-03T00:57:31.243Z,173.65
2018-03-03T01:00:08.948Z,195.10
2018-03-03T01:02:51.610Z,183.50
2018-03-03T01:05:32.507Z,193.85
2018-03-03T01:08:10.109Z,183.60
2018-03-03T01:10:45.422Z,188.12
2018-03-03T01:13:22.026Z,192.37
2018-03-03T01:15:58.800Z,176.50
2018-03-03T01:18:35.740Z,177.70
2018-03-03T01:21:12.893Z,170.95
2018-03-03T01:23:50.161Z,173.18
2018-03-03T01:26:27.969Z,192.00
2018-03-03T01:29:04.913Z,178.02
2018-03-03T01:31:47.454Z,181.25
2018-03-03T01:34:23.448Z,182.40
2018-03-03T01:37:01.043Z,176.43
2018-03-03T01:39:37.793Z,172.50
2018-03-03T01:42:14.325Z,181.87
2018-03-03T01:44:50.534Z,170.38
2018-03-03T01:47:28.130Z,175.32
2018-03-03T01:50:07.047Z,169.27
2018-03-03T01:52:44.416Z,181.10
2018-03-03T01:55:27.070Z,190.12
2018-03-03T01:58:02.796Z,173.48
2018-03-03T02:00:38.687Z,173.25
2018-03-03T02:03:15.806Z,173.87
2018-03-03T02:05:52.615Z,179.63
2018-03-03T02:08:28.981Z,188.65
2018-03-03T02:11:05.817Z,175.38
2018-03-03T02:13:41.209Z,186.55
2018-03-03T02:16:18.955Z,195.00
2018-03-03T02:18:55.241Z,192.80
2018-03-03T02:21:30.855Z,171.13
2018-03-03T02:24:08.697Z,206.57
2018-03-03T02:26:45.725Z,185.25
2018-03-03T02:29:24.612Z,207.05
2018-03-03T02:32:01.885Z,186.02
2018-03-03T02:34:38.762Z,181.25
2018-03-03T02:37:15.381Z,179.95
2018-03-03T02:39:53.058Z,186.10
2018-03-03T02:42:30.095Z,171.60
2018-03-03T02:45:05.878Z,170.98
2018-03-03T02:47:43.697Z,166.10
2018-03-03T02:50:18.760Z,176.63
2018-03-03T02:52:56.375Z,200.38
2018-03-03T02:55:34.046Z,186.60
2018-03-03T02:58:10.980Z,197.30
2018-03-03T03:00:46.879Z,193.37
2018-03-03T03:03:25.148Z,193.55
2018-03-03T03:06:01.212Z,197.68
2018-03-03T03:08:38.166Z,172.32
2018-03-03T03:11:15.232Z,180.45
2018-03-03T03:13:52.385Z,187.43
2018-03-03T03:16:29.304Z,169.45
2018-03-03T03:19:06.203Z,158.87
2018-03-03T03:21:43.542Z,166.10
2018-03-03T03:24:20.761Z,196.73
2018-03-03T03:26:56.965Z,170.57
2018-03-03T03:29:32.188Z,172.98
2018-03-03T03:32:09.769Z,179.93
2018-03-03T03:34:48.983Z,159.80
2018-03-03T03:37:25.918Z,177.93
2018-03-03T03:40:02.619Z,168.43
2018-03-03T03:42:39.841Z,165.35
2018-03-03T03:45:22.649Z,169.82
2018-03-03T03:47:59.187Z,162.23
2018-03-03T03:50:37.365Z,165.02
2018-03-03T03:53:14.198Z,181.07
2018-03-03T03:55:51.713Z,175.40
2018-03-03T03:58:29.902Z,184.37
2018-03-03T04:01:05.699Z,183.15
2018-03-03T04:03:41.097Z,187.77
2018-03-03T04:06:19.510Z,181.20
2018-03-03T04:08:58.614Z,178.60
2018-03-03T04:11:35.351Z,188.30
2018-03-03T04:14:11.205Z,183.68
2018-03-03T04:16:47.078Z,186.73
2018-03-03T04:19:24.932Z,187.88
2018-03-03T04:22:01.769Z,175.57
2018-03-03T04:24:40.674Z,167.25
2018-03-03T04:27:18.817Z,178.62
2018-03-03T04:29:55.480Z,190.00
2018-03-03T04:32:37.844Z,178.98
2018-03-03T04:35:15.070Z,177.95
2018-03-03T04:37:53.521Z,168.13
2018-03-03T04:40:30.296Z,169.43
2018-03-03T04:43:00.976Z,178.55
2018-03-03T04:45:38.945Z,150.30
2018-03-03T04:48:16.261Z,169.62
2018-03-03T04:50:57.425Z,156.37
2018-03-03T04:53:36.023Z,172.48
2018-03-03T04:56:12.525Z,163.48
2018-03-03T04:58:56.498Z,177.10
2018-03-03T05:01:44.163Z,176.12
2018-03-03T05:04:31.970Z,162.68
2018-03-03T05:07:17.700Z,166.00
2018-03-03T05:10:01.735Z,145.27
2018-03-03T05:12:32.969Z,150.38
2018-03-03T05:15:30.853Z,166.88
2018-03-03T05:18:07.435Z,165.52
2018-03-03T05:20:48.685Z,163.15
2018-03-03T05:23:31.399Z,155.68
2018-03-03T05:26:13.511Z,174.15
2018-03-03T05:28:55.859Z,150.57
2018-03-03T05:31:38.514Z,163.50
2018-03-03T05:34:20.323Z,162.00
2018-03-03T05:37:02.333Z,154.65
2018-03-03T05:39:45.082Z,158.57
2018-03-03T05:42:43.120Z,158.20
2018-03-03T05:48:14.872Z,159.70
2018-03-03T05:50:51.549Z,167.62
2018-03-03T05:53:48.320Z,153.68
2018-03-03T05:59:16.506Z,138.02
2018-03-03T06:02:00.648Z,141.65
2018-03-03T06:04:47.566Z,151.98
2018-03-03T06:07:42.007Z,145.60
2018-03-03T06:12:59.694Z,154.87
2018-03-03T06:15:35.334Z,134.43
2018-03-03T06:18:10.873Z,148.87
2018-03-03T06:20:48.190Z,156.60
2018-03-03T06:23:25.504Z,144.65
2018-03-03T06:26:00.684Z,158.73
2018-03-03T06:28:36.420Z,148.35
2018-03-03T06:31:13.712Z,151.43
2018-03-03T06:33:49.026Z,135.18
2018-03-03T06:36:25.881Z,157.90
2018-03-03T06:38:56.678Z,154.60
2018-03-03T06:41:33.688Z,153.38
2018-03-03T06:44:10.413Z,139.52
2018-03-03T06:46:47.433Z,149.23
2018-03-03T06:49:25.059Z,135.88
2018-03-03T06:52:01.581Z,142.82
2018-03-03T06:54:37.886Z,134.18
2018-03-03T06:57:13.337Z,148.20
2018-03-03T06:59:44.658Z,133.85
2018-03-03T07:02:21.744Z,142.80
2018-03-03T07:04:58.449Z,142.62
2018-03-03T07:07:35.580Z,135.75
2018-03-03T07:10:11.719Z,144.57
2018-03-03T07:12:50.970Z,143.40
2018-03-03T07:15:29.535Z,135.98
2018-03-03T07:18:07.772Z,151.20
2018-03-03T07:20:43.062Z,133.68
2018-03-03T07:23:20.455Z,136.32
2018-03-03T07:25:56.248Z,138.70
2018-03-03T07:28:34.810Z,133.18
2018-03-03T07:31:11.247Z,121.47
2018-03-03T07:33:47.851Z,141.32
2018-03-03T07:36:29.995Z,123.80
2018-03-03T07:39:10.332Z,130.87
2018-03-03T07:41:45.977Z,125.78
2018-03-03T07:44:22.527Z,141.88
2018-03-03T07:46:59.100Z,136.40
2018-03-03T07:49:35.798Z,137.75
2018-03-03T07:52:12.625Z,138.57
2018-03-03T07:54:50.293Z,136.25
2018-03-03T07:57:27.183Z,141.30
2018-03-03T08:00:04.761Z,124.62
2018-03-03T08:02:41.396Z,133.10
2018-03-03T08:05:19.167Z,119.10
2018-03-03T08:07:56.194Z,134.00
2018-03-03T08:10:34.157Z,135.85
2018-03-03T08:13:11.111Z,132.77
2018-03-03T08:15:50.182Z,130.37
2018-03-03T08:18:29.279Z,136.20
2018-03-03T08:21:05.139Z,138.60
2018-03-03T08:23:42.878Z,135.20
2018-03-03T08:26:21.074Z,137.70
2018-03-03T08:28:55.675Z,127.12
2018-03-03T08:31:33.261Z,113.75
2018-03-03T08:34:09.715Z,124.10
2018-03-03T08:36:45.428Z,126.47
2018-03-03T08:39:24.331Z,135.68
2018-03-03T08:42:04.809Z,140.23
2018-03-03T08:44:44.485Z,124.72
2018-03-03T08:47:23.041Z,131.95
2018-03-03T08:50:00.037Z,112.68
2018-03-03T08:52:37.185Z,131.27
2018-03-03T08:55:12.975Z,125.12
2018-03-03T08:57:50.139Z,129.40
2018-03-03T09:00:26.061Z,121.75
2018-03-03T09:03:03.416Z,124.07
2018-03-03T09:05:42.197Z,117.43
2018-03-03T09:08:18.924Z,130.12
2018-03-03T09:10:56.454Z,138.10
2018-03-03T09:13:32.574Z,125.38
2018-03-03T09:16:09.178Z,110.32
2018-03-03T09:18:50.309Z,125.05
2018-03-03T09:21:29.671Z,124.72
2018-03-03T09:24:07.084Z,129.77
2018-03-03T09:26:44.860Z,138.73
2018-03-03T09:29:21.655Z,138.35
2018-03-03T09:31:57.292Z,129.55
2018-03-03T09:34:33.781Z,130.75
2018-03-03T09:37:15.421Z,129.87
2018-03-03T09:39:52.295Z,118.50
2018-03-03T09:42:34.924Z,125.75
2018-03-03T09:45:11.853Z,125.20
2018-03-03T09:47:47.668Z,135.37
2018-03-03T09:50:22.901Z,131.00
2018-03-03T09:53:00.800Z,134.35
2018-03-03T09:55:37.950Z,130.93
2018-03-03T09:58:14.740Z,129.75
2018-03-03T10:00:54.856Z,139.70
2018-03-03T10:03:24.317Z,127.03
2018-03-03T10:06:00.633Z,137.55
2018-03-03T10:08:39.915Z,140.18
2018-03-03T10:11:16.802Z,143.65
2018-03-03T10:13:55.508Z,123.80
2018-03-03T10:16:32.809Z,121.13
2018-03-03T10:19:15.996Z,146.25
2018-03-03T10:21:53.121Z,123.47
2018-03-03T10:24:29.302Z,139.37
2018-03-03T10:27:08.497Z,135.65
2018-03-03T10:29:45.979Z,131.45
2018-03-03T10:32:23.662Z,134.85
2018-03-03T10:35:00.162Z,126.15
2018-03-03T10:37:39.215Z,127.07
2018-03-03T10:40:16.091Z,110.10
2018-03-03T10:42:53.833Z,130.27
2018-03-03T10:45:30.546Z,128.18
2018-03-03T10:48:08.958Z,125.87
2018-03-03T10:50:46.000Z,121.70
2018-03-03T10:53:23.372Z,120.95
2018-03-03T10:56:01.839Z,119.65
2018-03-03T10:58:38.872Z,127.80
2018-03-03T11:01:17.209Z,137.52
2018-03-03T11:03:56.862Z,118.40
2018-03-03T11:06:34.819Z,124.62
2018-03-03T11:09:10.194Z,129.48
2018-03-03T11:11:46.948Z,129.12
2018-03-03T11:14:22.742Z,127.65
2018-03-03T11:16:59.119Z,123.03
2018-03-03T11:19:38.864Z,112.40
2018-03-03T11:22:16.977Z,124.15
2018-03-03T11:24:53.902Z,117.28
2018-03-03T11:27:32.673Z,125.97
2018-03-03T11:30:10.196Z,128.50
2018-03-03T11:32:47.173Z,120.07
2018-03-03T11:35:24.808Z,121.32
2018-03-03T11:38:00.489Z,134.73
2018-03-03T11:40:36.247Z,131.68
2018-03-03T11:43:14.509Z,133.50
2018-03-03T11:45:50.055Z,122.72
2018-03-03T11:48:28.881Z,117.35
2018-03-03T11:51:05.689Z,112.10
2018-03-03T11:53:43.872Z,128.93
2018-03-03T11:56:21.395Z,130.40
2018-03-03T11:59:00.022Z,125.43
2018-03-03T12:01:37.759Z,119.18
2018-03-03T12:04:14.177Z,115.85
2018-03-03T12:06:51.988Z,131.35
2018-03-03T12:09:28.477Z,119.97
2018-03-03T12:12:08.346Z,110.60
2018-03-03T12:14:45.460Z,129.70
2018-03-03T12:17:24.981Z,113.97
2018-03-03T12:20:02.373Z,113.43
2018-03-03T12:22:42.683Z,122.07
2018-03-03T12:25:19.901Z,115.90
2018-03-03T12:27:56.853Z,120.30
2018-03-03T12:30:35.999Z,109.55
2018-03-03T12:33:13.559Z,115.20
2018-03-03T12:35:49.641Z,127.50
2018-03-03T12:38:26.557Z,121.30
2018-03-03T12:41:04.220Z,113.30
2018-03-03T12:43:40.547Z,124.00
2018-03-03T12:46:18.102Z,130.82
2018-03-03T12:48:58.454Z,123.20
2018-03-03T12:51:35.549Z,114.03
2018-03-03T12:54:12.165Z,124.25
2018-03-03T12:56:49.237Z,119.18
2018-03-03T12:59:31.794Z,113.95
2018-03-03T13:02:07.800Z,130.18
2018-03-03T13:04:46.317Z,121.45
2018-03-03T13:07:25.567Z,119.45
2018-03-03T13:10:01.739Z,115.32
2018-03-03T13:12:37.050Z,121.43
2018-03-03T13:15:15.026Z,106.70
2018-03-03T13:17:52.343Z,122.53
2018-03-03T13:20:23.418Z,118.87
2018-03-03T13:22:58.744Z,113.28
2018-03-03T13:25:35.009Z,117.95
2018-03-03T13:28:13.096Z,120.57
2018-03-03T13:30:51.583Z,122.22
2018-03-03T13:33:30.086Z,119.97
2018-03-03T13:36:06.718Z,124.00
2018-03-03T13:38:44.915Z,113.75
2018-03-03T13:41:24.264Z,107.68
2018-03-03T13:44:01.802Z,106.47
2018-03-03T13:46:41.548Z,104.75
2018-03-03T13:49:17.087Z,110.78
2018-03-03T13:51:54.537Z,109.95
2018-03-03T13:54:32.531Z,116.90
2018-03-03T13:57:09.682Z,114.60
2018-03-03T13:59:46.432Z,108.90
2018-03-03T14:02:24.507Z,111.40
2018-03-03T14:05:00.299Z,109.93
2018-03-03T14:07:37.625Z,109.78
2018-03-03T14:10:15.474Z,106.75
2018-03-03T14:12:51.280Z,118.60
2018-03-03T14:15:28.997Z,103.65
2018-03-03T14:18:05.987Z,110.28
2018-03-03T14:20:43.947Z,107.72
2018-03-03T14:23:27.417Z,111.62
2018-03-03T14:26:05.945Z,93.87
2018-03-03T14:28:42.500Z,112.90
2018-03-03T14:31:20.307Z,96.28
2018-03-03T14:33:57.902Z,105.90
2018-03-03T14:36:35.526Z,107.15
2018-03-03T14:39:14.738Z,103.32
2018-03-03T14:41:52.382Z,102.70
2018-03-03T14:44:29.662Z,113.15
2018-03-03T14:47:06.300Z,104.57
2018-03-03T14:49:43.329Z,104.22
2018-03-03T14:52:20.014Z,109.65
2018-03-03T14:54:58.702Z,104.70
2018-03-03T14:57:35.852Z,119.55
2018-03-03T15:00:15.039Z,116.72
2018-03-03T15:02:54.608Z,107.25
2018-03-03T15:05:32.084Z,117.45
2018-03-03T15:08:11.650Z,110.57
2018-03-03T15:10:48.881Z,108.35
2018-03-03T15:13:25.160Z,116.12
2018-03-03T15:16:02.550Z,114.57
2018-03-03T15:18:38.244Z,105.30
2018-03-03T15:21:14.979Z,111.90
2018-03-03T15:23:51.230Z,114.97
2018-03-03T15:26:28.728Z,125.25
2018-03-03T15:29:06.484Z,109.28
2018-03-03T15:31:44.743Z,114.75
2018-03-03T15:34:21.394Z,109.87
2018-03-03T15:36:58.014Z,114.72
2018-03-03T15:39:33.679Z,107.12
2018-03-03T15:42:10.878Z,114.40
2018-03-03T15:44:47.874Z,113.65
2018-03-03T15:47:27.758Z,108.80
2018-03-03T15:50:06.131Z,100.68
2018-03-03T15:52:43.972Z,116.43
2018-03-03T15:55:26.481Z,106.30
2018-03-03T15:58:04.964Z,113.05
2018-03-03T16:00:45.266Z,119.07
2018-03-03T16:03:21.208Z,109.70
2018-03-03T16:05:58.005Z,112.90
2018-03-03T16:08:34.962Z,110.20
2018-03-03T16:11:12.963Z,110.93
2018-03-03T16:13:48.662Z,109.35
2018-03-03T16:16:30.487Z,118.80
2018-03-03T16:19:07.672Z,105.28
2018-03-03T16:21:43.924Z,107.90
2018-03-03T16:24:21.843Z,111.65
2018-03-03T16:26:58.643Z,121.00
2018-03-03T16:29:35.725Z,118.22
2018-03-03T16:32:13.468Z,109.28
2018-03-03T16:34:52.582Z,104.95
2018-03-03T16:37:30.069Z,92.43
2018-03-03T16:40:07.768Z,110.07
2018-03-03T16:42:45.021Z,96.82
2018-03-03T16:45:21.024Z,114.32
2018-03-03T16:47:58.515Z,117.37
2018-03-03T16:50:37.166Z,114.97
2018-03-03T16:53:13.763Z,121.53
2018-03-03T16:55:50.942Z,109.12
2018-03-03T16:58:26.498Z,104.97
2018-03-03T17:01:03.994Z,108.00
2018-03-03T17:03:41.999Z,104.03
2018-03-03T17:06:20.531Z,104.47
2018-03-03T17:08:58.392Z,112.40
2018-03-03T17:11:35.422Z,116.45
2018-03-03T17:14:11.999Z,103.30
2018-03-03T17:16:51.908Z,116.20
2018-03-03T17:19:27.676Z,100.47
2018-03-03T17:22:03.506Z,110.63
2018-03-03T17:24:39.541Z,102.60
2018-03-03T17:27:10.714Z,96.50
2018-03-03T17:29:49.467Z,107.87
2018-03-03T17:32:32.149Z,103.40
2018-03-03T17:35:11.859Z,92.12
2018-03-03T17:37:47.948Z,102.38
2018-03-03T17:40:24.244Z,86.68
2018-03-03T17:42:59.912Z,95.30
2018-03-03T17:45:39.277Z,104.78
2018-03-03T17:48:20.179Z,91.37
2018-03-03T17:50:57.558Z,87.18
2018-03-03T17:53:34.453Z,93.75
2018-03-03T17:56:13.866Z,94.80
2018-03-03T17:58:51.140Z,94.10
2018-03-03T18:01:29.114Z,82.18
2018-03-03T18:04:05.857Z,100.50
2018-03-03T18:06:42.584Z,91.68
2018-03-03T18:09:25.847Z,89.93
2018-03-03T18:12:05.657Z,91.90
2018-03-03T18:14:42.639Z,90.35
2018-03-03T18:17:19.548Z,90.60
2018-03-03T18:19:56.804Z,85.75
2018-03-03T18:22:35.088Z,104.82
2018-03-03T18:25:13.919Z,93.32
2018-03-03T18:27:49.486Z,98.05
2018-03-03T18:30:27.045Z,98.65
2018-03-03T18:33:03.448Z,108.25
2018-03-03T18:35:39.834Z,98.78
2018-03-03T18:38:15.232Z,103.00
2018-03-03T18:40:53.536Z,102.82
2018-03-03T18:43:32.565Z,124.47
2018-03-03T18:46:11.838Z,95.50
2018-03-03T18:48:49.007Z,106.97
2018-03-03T18:51:26.416Z,117.97
2018-03-03T18:54:02.355Z,111.43
2018-03-03T18:56:39.685Z,107.63
2018-03-03T18:59:17.861Z,112.62
2018-03-03T19:01:56.188Z,101.15
2018-03-03T19:04:33.220Z,120.87
2018-03-03T19:07:10.588Z,119.80
2018-03-03T19:09:49.616Z,114.65
2018-03-03T19:12:27.411Z,119.60
2018-03-03T19:15:04.101Z,110.57
2018-03-03T19:17:40.775Z,112.80
2018-03-03T19:20:18.181Z,115.32
2018-03-03T19:22:53.538Z,127.28
2018-03-03T19:25:29.290Z,122.53
2018-03-03T19:28:05.549Z,118.05
2018-03-03T19:30:41.892Z,113.40
2018-03-03T19:33:17.224Z,121.82
2018-03-03T19:35:55.469Z,110.47
2018-03-03T19:38:38.222Z,131.30
2018-03-03T19:41:15.669Z,125.32
2018-03-03T19:43:55.410Z,140.10
2018-03-03T19:46:34.238Z,120.85
2018-03-03T19:49:11.041Z,137.02
2018-03-03T19:51:47.919Z,137.15
2018-03-03T19:54:23.662Z,120.82
2018-03-03T19:56:59.206Z,128.07
2018-03-03T19:59:36.168Z,126.57
2018-03-03T20:02:12.246Z,134.57
2018-03-03T20:04:50.477Z,135.27
2018-03-03T20:07:27.643Z,123.72
2018-03-03T20:10:06.524Z,124.30
2018-03-03T20:12:42.127Z,134.70
2018-03-03T20:15:20.056Z,137.25
2018-03-03T20:17:55.525Z,143.73
2018-03-03T20:20:33.904Z,136.48
2018-03-03T20:23:09.679Z,128.68
2018-03-03T20:25:45.550Z,128.60
2018-03-03T20:28:20.697Z,133.85
2018-03-03T20:30:57.702Z,135.50
2018-03-03T20:33:33.563Z,127.07
2018-03-03T20:36:10.939Z,130.68
2018-03-03T20:38:46.450Z,126.80
2018-03-03T20:41:22.448Z,116.05
2018-03-03T20:43:59.368Z,124.90
2018-03-03T20:46:41.464Z,134.95
2018-03-03T20:49:22.148Z,136.65
2018-03-03T20:51:59.274Z,134.05
2018-03-03T20:54:37.488Z,142.25
2018-03-03T20:57:14.458Z,128.93
2018-03-03T20:59:54.171Z,115.00
2018-03-03T21:02:31.758Z,127.40
2018-03-03T21:05:08.244Z,138.23
2018-03-03T21:07:46.586Z,141.30
2018-03-03T21:10:21.986Z,146.85
2018-03-03T21:12:58.627Z,124.10
2018-03-03T21:15:35.496Z,147.68
2018-03-03T21:18:12.188Z,143.75
2018-03-03T21:20:48.359Z,130.52
2018-03-03T21:23:22.684Z,135.63
2018-03-03T21:26:00.371Z,138.40
2018-03-03T21:28:36.304Z,152.00
2018-03-03T21:31:14.991Z,138.20
2018-03-03T21:33:51.626Z,136.52
2018-03-03T21:36:26.967Z,136.02
2018-03-03T21:39:04.089Z,155.27
2018-03-03T21:41:41.547Z,142.82
2018-03-03T21:44:18.660Z,140.10
2018-03-03T21:46:54.455Z,141.07
2018-03-03T21:49:31.485Z,145.12
2018-03-03T21:52:08.216Z,147.77
2018-03-03T21:54:43.878Z,153.20
2018-03-03T21:57:21.228Z,147.85
2018-03-03T21:59:57.165Z,140.40
2018-03-03T22:02:34.870Z,138.48
2018-03-03T22:05:11.855Z,154.27
2018-03-03T22:07:47.739Z,145.10
2018-03-03T22:10:18.364Z,161.75
2018-03-03T22:12:54.162Z,149.77
2018-03-03T22:15:32.220Z,143.95
2018-03-03T22:18:09.008Z,125.87
2018-03-03T22:20:46.440Z,141.05
2018-03-03T22:23:24.019Z,136.85
2018-03-03T22:26:00.526Z,126.07
2018-03-03T22:28:36.391Z,135.73
2018-03-03T22:31:11.820Z,131.52
2018-03-03T22:33:50.681Z,146.15
2018-03-03T22:36:29.231Z,140.43
2018-03-03T22:39:05.475Z,130.48
2018-03-03T22:41:42.970Z,129.07
2018-03-03T22:44:18.693Z,133.07
2018-03-03T22:46:55.577Z,150.55
2018-03-03T22:49:32.465Z,135.73
2018-03-03T22:52:10.031Z,134.93
2018-03-03T22:54:46.949Z,138.10
2018-03-03T22:57:22.880Z,142.18
2018-03-03T22:59:59.776Z,137.52
2018-03-03T23:02:35.540Z,138.75
2018-03-03T23:05:11.993Z,138.07
2018-03-03T23:07:47.066Z,149.15
2018-03-03T23:10:26.381Z,142.52
2018-03-03T23:13:02.681Z,136.48
2018-03-03T23:15:38.785Z,136.77
2018-03-03T23:18:17.871Z,143.60
2018-03-03T23:20:57.285Z,141.52
2018-03-03T23:23:34.512Z,139.62
2018-03-03T23:26:10.378Z,135.73
2018-03-03T23:28:48.044Z,128.98
2018-03-03T23:31:23.750Z,141.93
2018-03-03T23:34:00.171Z,143.40
2018-03-03T23:36:35.691Z,140.10
2018-03-03T23:39:12.678Z,151.02
2018-03-03T23:41:54.287Z,158.95
2018-03-03T23:44:31.449Z,143.57
2018-03-03T23:47:11.344Z,139.95
2018-03-03T23:49:46.693Z,154.93
2018-03-03T23:52:23.371Z,154.85
2018-03-03T23:55:00.616Z,134.52
2018-03-03T23:57:43.033Z,140.77
